Time;durP1;ratioP1;P1;durP2;ratioP2;P2;SDS_P1;SDS_P2;PMS_P1;PMS_P2;Temp;Humidity;BMP_temperature;BMP_pressure;BME280_temperature;BME280_humidity;BME280_pressure;Samples;Min_cycle;Max_cycle;Signal;HPM_P1;HPM_P2
2022/09/24 00:00:44;;;;;;;69.45;47.25;;;14.10;99.90;;;;;;5001933;28;20053;-68
2022/09/24 00:03:10;;;;;;;66.40;48.38;;;14.20;99.90;;;;;;5018104;28;20041;-69
2022/09/24 00:05:40;;;;;;;65.47;46.50;;;14.20;99.90;;;;;;5018126;28;20096;-69
2022/09/24 00:08:06;;;;;;;65.97;48.00;;;14.30;99.90;;;;;;5017894;28;20060;-69
2022/09/24 00:10:37;;;;;;;70.90;48.70;;;14.10;99.90;;;;;;5017916;28;20050;-70
2022/09/24 00:13:04;;;;;;;64.47;47.08;;;14.10;99.90;;;;;;5018078;28;20038;-70
2022/09/24 00:15:30;;;;;;;62.38;45.83;;;14.20;99.90;;;;;;5013869;28;20078;-69
2022/09/24 00:17:56;;;;;;;59.17;45.22;;;14.30;99.90;;;;;;4998067;28;20086;-68
2022/09/24 00:20:22;;;;;;;58.17;45.03;;;14.30;99.90;;;;;;4998066;28;20077;-70
2022/09/24 00:22:48;;;;;;;52.22;41.92;;;14.40;99.90;;;;;;4998157;28;20441;-69
2022/09/24 00:27:57;;;;;;;61.25;44.70;;;14.20;99.90;;;;;;4997953;28;20058;-69
2022/09/24 00:30:23;;;;;;;59.25;44.50;;;14.20;99.90;;;;;;5002923;28;20046;-68
2022/09/24 00:32:48;;;;;;;54.35;42.72;;;14.10;99.90;;;;;;5017643;28;20081;-69
2022/09/24 00:35:14;;;;;;;61.40;44.83;;;14.30;99.90;;;;;;5017426;28;20045;-70
2022/09/24 00:37:39;;;;;;;59.20;42.08;;;14.40;99.90;;;;;;5017649;28;20042;-69
2022/09/24 00:40:06;;;;;;;57.33;42.40;;;14.20;99.90;;;;;;5017340;28;20045;-69
2022/09/24 00:42:31;;;;;;;57.83;42.60;;;14.20;99.90;;;;;;5017396;28;20107;-69
2022/09/24 00:44:57;;;;;;;57.92;40.75;;;14.30;99.90;;;;;;5016926;28;20038;-69
2022/09/24 00:47:33;;;;;;;58.60;42.08;;;14.30;99.90;;;;;;5017375;28;20046;-68
2022/09/24 00:50:24;;;;;;;53.92;42.22;;;14.40;99.90;;;;;;4999067;28;20081;-69
2022/09/24 00:53:21;;;;;;;44.85;35.15;;;14.20;99.90;;;;;;5017375;28;20372;-68
2022/09/24 00:55:53;;;;;;;51.17;38.25;;;14.40;99.90;;;;;;5004989;28;20492;-68
2022/09/24 00:58:20;;;;;;;48.17;37.38;;;14.40;99.90;;;;;;5016777;28;20457;-67
2022/09/24 01:00:46;;;;;;;51.25;37.92;;;14.20;99.90;;;;;;5004146;28;20081;-68
2022/09/24 01:03:19;;;;;;;44.63;33.85;;;14.20;99.90;;;;;;4997328;28;20042;-68
2022/09/24 01:05:45;;;;;;;46.25;36.67;;;14.30;99.90;;;;;;4997238;28;20065;-68
2022/09/24 01:08:16;;;;;;;52.20;38.40;;;14.30;99.90;;;;;;4996771;28;20050;-68
2022/09/24 01:11:08;;;;;;;58.90;40.40;;;14.20;99.90;;;;;;4996893;28;20372;-68
2022/09/24 01:13:58;;;;;;;53.97;38.22;;;14.30;99.90;;;;;;4997140;28;20046;-69
2022/09/24 01:16:48;;;;;;;49.03;35.63;;;14.30;99.90;;;;;;4996438;28;20058;-68
2022/09/24 01:19:38;;;;;;;39.78;31.10;;;14.50;99.90;;;;;;4997090;28;20185;-68
2022/09/24 01:22:25;;;;;;;50.63;32.83;;;14.40;99.90;;;;;;4997068;28;20201;-67
2022/09/24 01:25:19;;;;;;;38.60;24.98;;;14.30;99.90;;;;;;4996879;28;20116;-68
2022/09/24 01:27:51;;;;;;;24.92;15.88;;;14.50;99.90;;;;;;4985579;28;20065;-69
2022/09/24 01:30:17;;;;;;;27.13;14.77;;;14.30;99.90;;;;;;5015846;28;20145;-68
2022/09/24 01:32:49;;;;;;;19.75;8.57;;;14.40;99.90;;;;;;5016465;28;20376;-68
2022/09/24 01:35:20;;;;;;;19.80;6.80;;;14.50;99.90;;;;;;5016304;28;20045;-69
2022/09/24 01:37:51;;;;;;;24.73;6.75;;;14.40;99.90;;;;;;5016207;28;20046;-68
2022/09/24 01:40:21;;;;;;;19.50;6.00;;;14.30;99.90;;;;;;5016265;28;20398;-69
2022/09/24 01:42:49;;;;;;;18.65;5.20;;;14.20;99.90;;;;;;5007546;28;20066;-67
2022/09/24 01:45:16;;;;;;;17.02;4.70;;;14.20;99.90;;;;;;4996467;28;20042;-67
2022/09/24 01:47:42;;;;;;;18.15;4.57;;;14.30;99.90;;;;;;4996526;28;20054;-69
2022/09/24 01:50:11;;;;;;;16.25;5.30;;;14.00;99.90;;;;;;4996095;28;20042;-68
2022/09/24 01:52:59;;;;;;;20.25;4.90;;;14.20;99.90;;;;;;4996462;28;20061;-69
2022/09/24 01:55:27;;;;;;;12.27;5.72;;;14.20;99.90;;;;;;4996353;28;20339;-68
2022/09/24 01:58:00;;;;;;;15.88;5.65;;;14.10;99.90;;;;;;5007100;28;20113;-69
2022/09/24 02:00:26;;;;;;;15.43;5.73;;;14.00;99.90;;;;;;5015211;28;20050;-67
2022/09/24 02:03:10;;;;;;;20.40;6.47;;;14.20;99.90;;;;;;5015181;28;20354;-67
2022/09/24 02:05:42;;;;;;;20.08;5.70;;;14.10;99.90;;;;;;5016097;28;20064;-68
2022/09/24 02:08:32;;;;;;;22.40;6.63;;;14.20;99.90;;;;;;5016068;28;20464;-67
2022/09/24 02:11:19;;;;;;;14.52;5.22;;;14.20;99.90;;;;;;5015693;28;20037;-67
2022/09/24 02:14:08;;;;;;;17.10;5.82;;;13.90;99.90;;;;;;5015586;28;20368;-70
2022/09/24 02:16:49;;;;;;;23.67;6.38;;;14.10;99.90;;;;;;5015272;28;20503;-67
2022/09/24 02:19:19;;;;;;;19.38;5.93;;;13.90;99.90;;;;;;5001933;28;20042;-68
2022/09/24 02:21:45;;;;;;;20.45;5.95;;;14.00;99.90;;;;;;4995977;28;20483;-68
2022/09/24 02:24:29;;;;;;;20.52;5.95;;;14.00;99.90;;;;;;4995925;28;20053;-70
2022/09/24 02:26:55;;;;;;;16.63;6.40;;;13.90;99.90;;;;;;4995874;28;20062;-69
2022/09/24 07:16:32;;;;;;;13.65;3.28;;;13.60;99.90;;;;;;5816116;24;20025;31
2022/09/24 07:18:57;;;;;;;15.52;4.03;;;13.50;99.90;;;;;;4802546;29;20074;-66
2022/09/24 07:21:23;;;;;;;10.23;2.70;;;13.50;99.90;;;;;;4800301;29;20050;-67
2022/09/24 07:23:49;;;;;;;13.60;3.60;;;13.60;99.90;;;;;;4804657;29;20046;-68
2022/09/24 07:26:14;;;;;;;13.10;2.88;;;13.60;99.90;;;;;;4806497;29;20487;-69
2022/09/24 07:28:40;;;;;;;9.43;3.13;;;13.60;99.90;;;;;;4807338;29;20117;-71
2022/09/24 07:31:06;;;;;;;14.55;2.95;;;13.70;99.90;;;;;;4807182;29;20054;-71
2022/09/24 07:33:31;;;;;;;17.17;3.85;;;13.60;99.90;;;;;;4805656;29;20051;-71
2022/09/24 07:35:57;;;;;;;15.57;3.15;;;13.70;99.90;;;;;;4806998;29;20071;-78
2022/09/24 07:38:22;;;;;;;10.68;2.95;;;13.50;99.90;;;;;;4807251;29;20093;-75
2022/09/24 07:40:48;;;;;;;14.52;3.83;;;13.50;99.90;;;;;;4807150;29;20072;-76
2022/09/24 07:43:14;;;;;;;12.10;3.30;;;13.50;99.90;;;;;;4806616;29;20070;-76
2022/09/24 07:45:41;;;;;;;10.57;3.67;;;13.60;99.90;;;;;;4807554;29;20054;-77
2022/09/24 07:48:08;;;;;;;13.52;4.47;;;13.50;99.90;;;;;;4806001;29;20046;-75
2022/09/24 07:50:37;;;;;;;14.95;3.78;;;13.40;99.90;;;;;;4807299;29;20039;-71
2022/09/24 07:53:05;;;;;;;13.27;2.65;;;13.50;99.90;;;;;;4807045;29;20051;-70
2022/09/24 07:55:30;;;;;;;17.20;2.95;;;13.40;99.90;;;;;;4807191;29;20351;-67
2022/09/24 07:57:56;;;;;;;16.63;3.65;;;13.60;99.90;;;;;;4807396;29;20199;-67
2022/09/24 08:00:23;;;;;;;11.70;3.47;;;13.50;99.90;;;;;;4810612;29;20062;-68
2022/09/24 08:02:50;;;;;;;19.35;3.03;;;13.60;99.90;;;;;;4810638;29;20055;-68
2022/09/24 08:05:16;;;;;;;10.50;2.60;;;13.60;99.90;;;;;;4810116;29;20050;-67
2022/09/24 08:07:49;;;;;;;16.27;5.32;;;13.70;99.90;;;;;;4810275;29;20484;-69
2022/09/24 08:10:15;;;;;;;11.40;3.05;;;13.70;99.90;;;;;;4811361;29;20047;-69
2022/09/24 08:12:41;;;;;;;10.55;2.58;;;13.90;99.90;;;;;;4810462;29;20058;-68
2022/09/24 08:15:07;;;;;;;11.82;2.58;;;13.80;99.90;;;;;;4810085;29;20062;-67
2022/09/24 08:17:33;;;;;;;14.10;3.30;;;13.90;99.90;;;;;;4809840;29;20073;-68
2022/09/24 08:19:59;;;;;;;19.63;3.58;;;13.90;99.90;;;;;;4810418;29;20047;-68
2022/09/24 08:22:25;;;;;;;11.70;2.80;;;14.00;99.90;;;;;;4810261;29;20047;-67
2022/09/24 08:24:51;;;;;;;11.52;2.90;;;14.10;99.90;;;;;;4810419;29;20054;-67
2022/09/24 08:27:19;;;;;;;11.82;2.58;;;14.10;99.90;;;;;;4810313;29;20051;-68
2022/09/24 08:29:45;;;;;;;12.50;3.33;;;14.30;99.90;;;;;;4810051;29;20043;-67
2022/09/24 08:32:12;;;;;;;11.48;2.90;;;14.30;99.90;;;;;;4809854;29;20051;-67
2022/09/24 08:34:39;;;;;;;9.50;2.38;;;14.40;99.90;;;;;;4809956;29;20065;-69
2022/09/24 08:37:06;;;;;;;13.43;2.60;;;14.60;99.90;;;;;;4809786;29;20499;-69
2022/09/24 08:39:34;;;;;;;12.80;2.95;;;14.60;99.90;;;;;;4810135;29;20061;-68
2022/09/24 08:42:04;;;;;;;12.32;3.13;;;14.70;99.90;;;;;;4810143;29;20051;-68
2022/09/24 08:48:06;;;;;;;6.70;2.58;;;14.80;99.90;;;;;;4807376;29;20108;-67
2022/09/24 08:50:35;;;;;;;11.18;2.42;;;14.80;99.90;;;;;;4807548;29;20081;-72
2022/09/24 08:53:24;;;;;;;11.50;2.65;;;15.00;99.90;;;;;;4808780;29;20066;-72
2022/09/24 08:55:53;;;;;;;13.02;2.80;;;14.90;99.90;;;;;;4809573;29;20485;-72
2022/09/24 08:58:48;;;;;;;9.15;2.17;;;14.90;99.90;;;;;;4809755;29;20111;-72
2022/09/24 09:01:20;;;;;;;;;;;14.90;99.90;;;;;;4808804;29;20054;-72
2022/09/24 09:04:00;;;;;;;13.07;2.45;;;14.90;99.90;;;;;;4806536;29;20275;-71
2022/09/24 09:06:52;;;;;;;9.10;2.85;;;14.80;99.90;;;;;;4809209;29;20090;-71
2022/09/24 09:09:40;;;;;;;11.95;2.55;;;14.90;99.90;;;;;;4808951;29;20357;-71
2022/09/24 09:12:13;;;;;;;11.00;2.55;;;14.90;99.90;;;;;;4808880;29;20355;-72
2022/09/24 09:15:01;;;;;;;13.93;2.95;;;15.00;99.90;;;;;;4808944;29;20058;-73
2022/09/24 09:17:59;;;;;;;13.23;2.90;;;15.00;99.90;;;;;;4823058;29;20058;-71
2022/09/24 09:20:41;;;;;;;12.63;3.25;;;15.00;99.90;;;;;;4808271;29;20121;-72
2022/09/24 09:23:32;;;;;;;8.80;2.70;;;15.00;99.90;;;;;;4808106;29;20365;-71
2022/09/24 09:25:58;;;;;;;13.82;2.60;;;15.20;99.90;;;;;;4809024;29;20128;-71
2022/09/24 09:28:28;;;;;;;12.02;2.65;;;15.10;99.90;;;;;;4808004;29;20534;-68
2022/09/24 09:31:17;;;;;;;7.72;2.45;;;15.10;99.90;;;;;;4838676;29;20050;-70
2022/09/24 09:34:30;;;;;;;11.45;2.17;;;15.10;99.90;;;;;;4808808;29;20093;-70
2022/09/24 09:37:04;;;;;;;11.35;3.53;;;15.20;99.90;;;;;;4806621;29;20051;-70
2022/09/24 09:39:49;;;;;;;;;;;15.20;99.90;;;;;;4809001;29;20070;-70
2022/09/24 09:42:15;;;;;;;15.48;4.05;;;15.20;99.90;;;;;;4808444;29;19926;-70
2022/09/24 09:44:42;;;;;;;12.30;2.92;;;15.20;99.90;;;;;;4808611;29;20134;-70
2022/09/24 09:47:16;;;;;;;10.88;2.83;;;15.30;99.90;;;;;;4808428;29;20108;-70
2022/09/24 09:49:44;;;;;;;12.60;3.65;;;15.40;99.90;;;;;;4808625;29;20088;-70
2022/09/24 09:52:18;;;;;;;10.40;2.40;;;15.50;99.90;;;;;;4808567;29;20476;-69
2022/09/24 09:54:44;;;;;;;13.48;2.28;;;15.40;99.90;;;;;;4808425;29;20047;-70
2022/09/24 09:57:20;;;;;;;9.57;3.28;;;15.60;99.90;;;;;;4808327;29;20423;-69
2022/09/24 09:59:48;;;;;;;12.40;3.33;;;15.60;99.90;;;;;;4808441;29;20047;-69
2022/09/24 10:02:25;;;;;;;7.72;2.05;;;15.70;99.90;;;;;;4808099;29;20066;-70
2022/09/24 10:04:54;;;;;;;9.68;2.40;;;15.70;99.90;;;;;;4808041;29;20457;-70
2022/09/24 10:07:20;;;;;;;8.52;1.98;;;15.80;99.90;;;;;;4808219;29;20170;-70
2022/09/24 10:09:56;;;;;;;12.02;3.25;;;15.90;99.90;;;;;;4808195;29;20059;-70
2022/09/24 10:12:23;;;;;;;11.73;2.50;;;16.00;99.90;;;;;;4808270;29;20047;-68
2022/09/24 10:15:16;;;;;;;8.55;2.25;;;16.10;99.90;;;;;;4808121;29;20097;-67
2022/09/24 10:17:44;;;;;;;7.90;2.53;;;16.00;99.90;;;;;;4808010;29;20059;-66
2022/09/24 10:20:15;;;;;;;18.98;2.83;;;16.00;99.90;;;;;;4808408;29;20058;-70
2022/09/24 10:22:48;;;;;;;10.52;2.15;;;16.10;99.90;;;;;;4807544;29;20070;-69
2022/09/24 10:25:26;;;;;;;11.73;3.22;;;16.10;99.90;;;;;;4808018;29;20043;-68
2022/09/24 10:31:00;;;;;;;8.27;2.08;;;16.20;99.90;;;;;;4808125;29;20046;-67
2022/09/24 10:33:34;;;;;;;8.82;1.85;;;16.40;99.90;;;;;;4807223;29;20134;-68
2022/09/24 10:36:11;;;;;;;5.97;2.00;;;16.40;99.90;;;;;;4808053;29;20370;-66
2022/09/24 10:38:37;;;;;;;11.73;2.38;;;16.40;99.90;;;;;;4807857;29;20446;-68
2022/09/24 10:41:24;;;;;;;10.52;2.45;;;16.50;99.90;;;;;;4807794;29;20109;-68
2022/09/24 10:43:55;;;;;;;7.07;1.95;;;16.50;99.90;;;;;;4807742;29;20046;-66
2022/09/24 10:46:51;;;;;;;9.82;1.98;;;16.50;99.90;;;;;;4808178;29;20410;-71
2022/09/24 10:49:17;;;;;;;8.73;2.72;;;16.40;99.90;;;;;;4807936;29;20058;-79
2022/09/24 10:52:03;;;;;;;14.50;2.40;;;16.50;99.90;;;;;;4806816;29;20354;-76
2022/09/24 10:54:39;;;;;;;12.77;2.45;;;16.50;99.90;;;;;;4807930;29;20047;-77
2022/09/24 10:57:30;;;;;;;8.57;2.88;;;16.40;99.90;;;;;;4807579;29;20061;-79
2022/09/24 11:00:20;;;;;;;10.80;2.28;;;16.50;99.90;;;;;;4807144;29;20370;-79
2022/09/24 11:03:18;;;;;;;9.70;2.20;;;16.50;99.90;;;;;;4806596;29;20054;-77
2022/09/24 11:06:12;;;;;;;7.32;2.13;;;16.40;99.90;;;;;;4797822;29;20055;-78
2022/09/24 11:09:02;;;;;;;4.68;1.40;;;16.30;99.90;;;;;;4806752;29;20465;-77
2022/09/24 11:11:54;;;;;;;11.25;2.30;;;16.30;99.90;;;;;;4807831;29;20047;-77
2022/09/24 11:14:53;;;;;;;9.25;2.20;;;16.30;99.90;;;;;;4807415;29;20492;-76
2022/09/24 11:18:10;;;;;;;8.60;2.55;;;16.20;99.90;;;;;;4807788;29;20128;-76
2022/09/24 11:20:38;;;;;;;8.57;2.13;;;16.30;99.90;;;;;;4806722;29;20059;-79
2022/09/24 11:23:25;;;;;;;8.48;2.00;;;16.20;99.90;;;;;;4807512;29;20050;-79
2022/09/24 11:26:11;;;;;;;11.93;2.70;;;16.30;99.90;;;;;;4807560;29;20054;-75
2022/09/24 11:29:06;;;;;;;11.27;2.42;;;16.40;99.90;;;;;;4807070;29;20357;-68
2022/09/24 11:31:38;;;;;;;11.25;2.13;;;16.40;99.90;;;;;;4806598;29;20058;-68
2022/09/24 11:34:09;;;;;;;14.73;2.10;;;16.50;99.90;;;;;;4809976;29;20050;-68
2022/09/24 11:36:43;;;;;;;12.95;2.58;;;16.70;99.90;;;;;;4811195;29;20087;-71
2022/09/24 11:39:09;;;;;;;;;;;16.80;99.90;;;;;;4811042;29;20054;-70
2022/09/24 11:41:34;;;;;;;8.20;2.28;;;16.80;99.90;;;;;;4809891;29;20340;-71
2022/09/24 11:44:20;;;;;;;10.15;2.58;;;16.80;99.90;;;;;;4810865;29;20050;-72
2022/09/24 11:47:08;;;;;;;15.45;3.50;;;16.70;99.90;;;;;;4810983;29;20066;-68
2022/09/24 11:49:37;;;;;;;9.48;2.53;;;16.70;99.90;;;;;;4810758;29;20138;-67
2022/09/24 11:52:14;;;;;;;6.72;2.10;;;16.80;99.90;;;;;;4809949;29;20491;-70
2022/09/24 11:55:00;;;;;;;10.55;2.45;;;16.90;99.90;;;;;;4810288;29;20530;-68
2022/09/24 11:57:36;;;;;;;14.00;2.20;;;17.00;99.90;;;;;;4810806;29;20093;-68
2022/09/24 12:00:07;;;;;;;9.10;2.47;;;17.00;99.90;;;;;;4810592;29;20062;-68
2022/09/24 12:03:03;;;;;;;10.20;2.22;;;17.00;99.90;;;;;;4810475;29;20152;-67
2022/09/24 12:05:51;;;;;;;7.97;2.05;;;16.90;99.90;;;;;;4810582;29;20047;-66
2022/09/24 12:08:26;;;;;;;11.82;2.13;;;16.90;99.90;;;;;;4810032;29;20068;-69
2022/09/24 12:11:07;;;;;;;10.00;2.10;;;17.00;99.90;;;;;;4810135;29;20069;-69
2022/09/24 12:13:41;;;;;;;7.85;2.22;;;17.20;99.90;;;;;;4810017;29;20066;-68
2022/09/24 12:16:20;;;;;;;10.77;2.95;;;17.20;99.90;;;;;;4810436;29;20051;-68
2022/09/24 12:18:59;;;;;;;7.40;2.35;;;17.30;99.90;;;;;;4823978;29;20146;-67
2022/09/24 12:21:33;;;;;;;6.90;1.80;;;17.20;99.90;;;;;;4809922;29;20058;-68
2022/09/24 12:24:05;;;;;;;7.50;1.75;;;17.30;99.90;;;;;;4809702;29;20079;-68
2022/09/24 12:26:36;;;;;;;10.18;2.05;;;17.30;99.90;;;;;;4810035;29;20059;-68
2022/09/24 12:35:13;;;;;;;9.77;2.15;;;17.50;99.90;;;;;;4809914;29;20059;-68
2022/09/24 12:37:41;;;;;;;5.60;1.85;;;17.50;99.90;;;;;;4809840;29;20411;-68
2022/09/24 12:40:44;;;;;;;8.63;2.13;;;17.40;99.90;;;;;;4809560;29;20062;-68
2022/09/24 12:43:25;;;;;;;7.05;2.22;;;17.30;99.90;;;;;;4809928;29;20115;-68
2022/09/24 12:45:57;;;;;;;6.30;1.52;;;17.50;99.90;;;;;;4808965;29;20477;-68
2022/09/24 12:48:25;;;;;;;9.45;1.95;;;17.40;99.90;;;;;;4809744;29;20051;-68
2022/09/24 12:51:03;;;;;;;6.00;1.75;;;17.50;99.90;;;;;;4809746;29;20062;-68
2022/09/24 12:53:34;;;;;;;7.93;1.73;;;17.60;99.90;;;;;;4809105;29;20477;-68
2022/09/24 12:56:02;;;;;;;5.35;2.17;;;17.60;99.90;;;;;;4809818;29;20124;-68
2022/09/24 12:58:35;;;;;;;7.63;2.30;;;17.60;99.90;;;;;;4809470;29;20047;-69
2022/09/24 13:01:26;;;;;;;8.80;1.98;;;17.50;99.90;;;;;;4809307;29;20138;-68
2022/09/24 13:04:25;;;;;;;10.90;2.03;;;17.40;99.90;;;;;;4808727;29;20154;-74
2022/09/24 13:06:51;;;;;;;6.90;1.83;;;17.40;99.90;;;;;;4809304;29;20054;-75
2022/09/24 13:09:43;;;;;;;11.05;3.03;;;17.40;99.90;;;;;;4809219;29;20078;-67
2022/09/24 13:12:28;;;;;;;8.85;1.65;;;17.60;99.90;;;;;;4808957;29;20505;-70
2022/09/24 13:15:03;;;;;;;9.90;2.35;;;17.60;99.90;;;;;;4809134;29;20507;-69
2022/09/24 13:17:32;;;;;;;8.25;2.40;;;17.70;99.90;;;;;;4809417;29;20067;-66
2022/09/24 13:20:17;;;;;;;6.45;1.35;;;17.90;99.90;;;;;;4809241;29;20055;-69
2022/09/24 13:22:58;;;;;;;10.18;1.92;;;18.00;99.90;;;;;;4808770;29;20050;-67
2022/09/24 13:25:25;;;;;;;6.68;1.67;;;17.90;99.90;;;;;;4809014;29;20070;-69
2022/09/24 13:27:57;;;;;;;12.65;2.42;;;17.90;99.90;;;;;;4808941;29;20485;-68
2022/09/24 13:30:35;;;;;;;15.57;3.60;;;18.10;99.90;;;;;;4809189;29;20047;-69
2022/09/24 13:33:11;;;;;;;69.82;6.15;;;18.20;99.90;;;;;;4809096;29;20055;-67
2022/09/24 13:36:05;;;;;;;67.53;6.40;;;18.00;99.90;;;;;;4808752;29;20512;-67
2022/09/24 13:38:56;;;;;;;13.45;2.88;;;17.80;99.90;;;;;;4808738;29;20105;-68
2022/09/24 13:41:40;;;;;;;8.73;1.95;;;17.60;99.90;;;;;;4808683;29;20066;-68
2022/09/24 13:44:23;;;;;;;11.70;2.30;;;17.80;99.90;;;;;;4808865;29;20097;-68
2022/09/24 13:46:56;;;;;;;10.03;2.83;;;18.20;99.90;;;;;;4808675;29;20058;-68
2022/09/24 13:49:23;;;;;;;10.32;2.40;;;18.30;99.90;;;;;;4808798;29;20054;-68
2022/09/24 13:52:27;;;;;;;15.27;2.38;;;18.30;99.90;;;;;;4808367;29;20126;-69
2022/09/24 13:54:59;;;;;;;7.18;2.13;;;18.40;99.90;;;;;;4808668;29;20446;-69
2022/09/24 13:57:27;;;;;;;8.80;2.17;;;19.40;99.90;;;;;;4808378;29;20088;-68
2022/09/24 14:00:14;;;;;;;8.02;2.75;;;19.30;99.90;;;;;;4808567;29;20062;-68
2022/09/24 14:02:42;;;;;;;8.85;2.10;;;19.30;99.90;;;;;;4808582;29;20094;-69
2022/09/24 14:05:16;;;;;;;6.45;2.13;;;19.30;99.90;;;;;;4808239;29;20103;-71
2022/09/24 14:07:42;;;;;;;;;;;20.50;99.90;;;;;;4808842;29;20046;-71
2022/09/24 14:10:13;;;;;;;12.23;2.60;;;21.80;99.90;;;;;;4808067;29;19944;-71
2022/09/24 14:12:39;;;;;;;6.15;1.58;;;22.70;99.90;;;;;;4808586;29;20454;-70
2022/09/24 14:15:16;;;;;;;7.53;1.60;;;22.50;99.90;;;;;;4808384;29;20122;-70
2022/09/24 14:17:42;;;;;;;6.85;2.00;;;21.80;98.50;;;;;;4808109;29;20097;-69
2022/09/24 14:20:14;;;;;;;9.18;2.42;;;22.00;99.90;;;;;;4807802;29;20450;-74
2022/09/24 14:22:44;;;;;;;10.65;2.40;;;21.80;98.40;;;;;;4830577;29;20142;-70
2022/09/24 14:25:24;;;;;;;6.65;1.70;;;21.50;99.00;;;;;;4796821;29;20047;-69
2022/09/24 14:27:50;;;;;;;8.93;2.22;;;21.00;98.80;;;;;;4795220;29;20112;-69
2022/09/24 14:30:22;;;;;;;6.55;2.17;;;20.30;99.90;;;;;;4800907;29;20038;-71
2022/09/24 14:32:57;;;;;;;9.65;1.90;;;19.90;99.90;;;;;;4807950;29;20043;-70
2022/09/24 14:35:38;;;;;;;9.50;2.05;;;20.20;99.90;;;;;;4807868;29;20058;-72
2022/09/24 14:38:05;;;;;;;9.07;2.08;;;19.90;99.90;;;;;;4807893;29;20043;-69
2022/09/24 14:40:40;;;;;;;7.00;1.85;;;19.40;99.90;;;;;;4807901;29;20065;-72
2022/09/24 14:43:20;;;;;;;10.82;2.38;;;20.30;99.90;;;;;;4807839;29;20051;-71
2022/09/24 14:45:48;;;;;;;6.68;1.95;;;22.20;99.70;;;;;;4807865;29;20058;-70
2022/09/24 14:48:21;;;;;;;6.65;1.75;;;23.00;98.90;;;;;;4807724;29;20361;-71
2022/09/24 14:50:47;;;;;;;5.20;1.40;;;24.40;95.80;;;;;;4808036;29;20047;-72
2022/09/24 14:53:19;;;;;;;5.13;1.67;;;25.70;94.10;;;;;;4807885;29;20180;-70
2022/09/24 14:55:45;;;;;;;9.25;1.92;;;26.30;91.50;;;;;;4807822;29;20107;-72
2022/09/24 14:58:25;;;;;;;6.30;2.00;;;26.70;91.80;;;;;;4807814;29;20134;-72
2022/09/24 15:00:59;;;;;;;8.38;1.90;;;27.10;89.60;;;;;;4808091;29;20346;-69
2022/09/24 15:03:39;;;;;;;7.18;2.28;;;26.90;90.20;;;;;;4807889;29;20141;-72
2022/09/24 15:06:32;;;;;;;9.07;1.90;;;28.00;86.40;;;;;;4807803;29;20385;-73
2022/09/24 15:09:26;;;;;;;6.70;2.07;;;28.80;83.70;;;;;;4810217;29;20169;-70
2022/09/24 15:11:54;;;;;;;4.68;1.50;;;29.30;84.00;;;;;;4811582;29;20142;-70
2022/09/24 15:14:26;;;;;;;6.43;1.92;;;29.60;83.20;;;;;;4811461;29;20047;-72
2022/09/24 15:16:53;;;;;;;5.63;1.48;;;29.70;80.20;;;;;;4810965;29;20047;-72
2022/09/24 15:19:29;;;;;;;4.75;1.70;;;29.20;80.10;;;;;;4811167;29;20446;-72
2022/09/24 15:21:56;;;;;;;8.77;2.13;;;30.00;76.90;;;;;;4811591;29;20055;-72
2022/09/24 15:24:24;;;;;;;8.07;2.38;;;29.70;76.80;;;;;;4810744;29;20047;-72
2022/09/24 15:27:28;;;;;;;5.70;1.85;;;28.00;76.90;;;;;;4840763;29;20454;-74
2022/09/24 15:29:58;;;;;;;5.82;2.05;;;26.20;77.50;;;;;;4810955;29;20465;-74
2022/09/24 15:32:26;;;;;;;6.97;2.15;;;25.10;82.50;;;;;;4811277;29;20054;-74
2022/09/24 15:34:53;;;;;;;4.30;1.50;;;25.20;84.00;;;;;;4810996;29;20492;-73
2022/09/24 15:37:21;;;;;;;5.45;1.70;;;24.50;83.70;;;;;;4810388;29;20051;-73
2022/09/24 15:39:48;;;;;;;8.07;1.80;;;25.50;85.10;;;;;;4810585;29;20086;-70
2022/09/24 15:42:20;;;;;;;8.10;2.08;;;25.10;83.10;;;;;;4810985;29;20050;-72
2022/09/24 15:44:49;;;;;;;7.78;1.92;;;24.40;83.40;;;;;;4810929;29;20046;-70
2022/09/24 15:47:15;;;;;;;11.02;3.08;;;23.40;86.00;;;;;;4810360;29;20076;-70
2022/09/24 15:49:41;;;;;;;5.60;1.65;;;22.50;87.90;;;;;;4810211;29;20505;-70
2022/09/24 15:52:25;;;;;;;7.35;2.13;;;21.70;90.00;;;;;;4810486;29;20195;-71
2022/09/24 15:54:52;;;;;;;4.38;1.30;;;22.50;90.00;;;;;;4810769;29;20389;-71
2022/09/24 15:57:18;;;;;;;6.00;1.60;;;23.20;89.20;;;;;;4840494;29;20047;-69
2022/09/24 15:59:44;;;;;;;3.45;1.25;;;24.30;86.80;;;;;;4810727;29;20382;-70
2022/09/24 16:02:20;;;;;;;4.90;1.67;;;25.40;84.50;;;;;;4810631;29;20429;-71
2022/09/24 16:04:46;;;;;;;4.53;1.42;;;25.90;81.30;;;;;;4810592;29;20046;-70
2022/09/24 16:07:12;;;;;;;5.30;1.77;;;26.60;81.00;;;;;;4810524;29;20114;-72
2022/09/24 16:09:38;;;;;;;5.90;2.00;;;26.90;80.80;;;;;;4810601;29;20573;-72
2022/09/24 16:12:03;;;;;;;5.68;1.52;;;26.90;80.60;;;;;;4810604;29;20051;-70
2022/09/24 16:14:29;;;;;;;12.95;2.17;;;26.50;79.80;;;;;;4810285;29;20499;-74
2022/09/24 16:16:54;;;;;;;7.13;2.08;;;25.50;81.00;;;;;;4809826;29;20058;-71
2022/09/24 16:19:21;;;;;;;10.30;2.00;;;24.20;82.50;;;;;;4809041;29;20058;-73
2022/09/24 16:21:46;;;;;;;6.63;2.28;;;23.40;84.70;;;;;;4808666;29;20051;-72
2022/09/24 16:24:12;;;;;;;5.25;1.83;;;22.50;87.10;;;;;;4809721;29;20073;-73
2022/09/24 16:26:38;;;;;;;6.40;1.90;;;21.90;89.00;;;;;;4808714;29;20530;-73
2022/09/24 16:29:05;;;;;;;7.88;1.92;;;21.30;90.30;;;;;;4808931;29;20062;-73
2022/09/24 16:31:31;;;;;;;8.82;2.33;;;20.90;91.00;;;;;;4810275;29;20444;-70
2022/09/24 16:33:58;;;;;;;5.47;1.92;;;20.50;91.80;;;;;;4810188;29;20047;-73
2022/09/24 16:36:23;;;;;;;9.88;2.28;;;19.90;92.10;;;;;;4809937;29;20043;-70
2022/09/24 16:38:49;;;;;;;4.60;1.52;;;19.40;92.50;;;;;;4809479;29;20349;-76
2022/09/24 16:41:15;;;;;;;6.47;1.80;;;18.90;93.00;;;;;;4809250;29;20448;-72
2022/09/24 16:43:40;;;;;;;6.43;1.70;;;18.60;93.40;;;;;;4809735;29;20061;-71
2022/09/24 16:46:08;;;;;;;11.30;3.75;;;18.30;94.00;;;;;;4809746;29;20047;-70
2022/09/24 16:48:35;;;;;;;9.90;1.77;;;17.90;94.90;;;;;;4839501;29;20108;-69
2022/09/24 16:51:06;;;;;;;11.82;8.07;;;17.60;96.30;;;;;;4809754;29;20477;-68
2022/09/24 16:53:35;;;;;;;18.30;12.57;;;17.40;97.20;;;;;;4809882;29;20098;-69
2022/09/24 16:56:11;;;;;;;10.35;6.32;;;17.20;98.00;;;;;;4809952;29;20386;-75
2022/09/24 16:58:38;;;;;;;9.15;4.22;;;17.00;99.60;;;;;;4809424;29;20055;-70
2022/09/24 17:01:08;;;;;;;9.18;3.90;;;16.80;99.90;;;;;;4809136;29;20054;-68
